createdAt,value
2023-01-27T00:22:55.318Z,-0.52
2023-01-27T00:52:58.546Z,-0.66
2023-01-27T01:23:01.654Z,-0.91
2023-01-27T01:53:04.496Z,-0.87
2023-01-27T02:23:08.972Z,-0.79
2023-01-27T02:53:11.807Z,-0.94
2023-01-27T03:23:16.370Z,-1.00
2023-01-27T03:53:19.145Z,-1.05
2023-01-27T04:23:23.287Z,-1.09
2023-01-27T04:53:26.496Z,-1.13
2023-01-27T05:23:30.668Z,-1.17
2023-01-27T05:53:33.507Z,-1.14
2023-01-27T06:23:37.519Z,-1.19
2023-01-27T06:53:40.401Z,-1.09
2023-01-27T07:23:44.361Z,-1.06
2023-01-27T07:53:47.343Z,-0.93
2023-01-27T08:23:51.709Z,-0.80
2023-01-27T08:53:54.524Z,-0.72
2023-01-27T09:23:57.493Z,-0.63
2023-01-27T09:54:00.899Z,-0.35
2023-01-27T10:24:05.542Z,-0.33
2023-01-27T10:54:08.939Z,-0.40
2023-01-27T11:24:13.160Z,-0.09
2023-01-27T11:54:16.661Z,-0.12
2023-01-27T12:24:19.760Z,-0.29
2023-01-27T12:54:23.389Z,-0.31
2023-01-27T13:24:26.769Z,-0.12
2023-01-27T13:54:30.107Z,-0.13
2023-01-27T14:24:33.092Z,-0.20
2023-01-27T14:54:36.574Z,-0.26
2023-01-27T15:24:40.232Z,-0.24
2023-01-27T15:54:43.652Z,-0.25
2023-01-27T16:24:46.595Z,-0.20
2023-01-27T16:54:50.064Z,-0.31
2023-01-27T17:24:53.808Z,-0.65
2023-01-27T17:54:57.421Z,-0.75
2023-01-27T18:25:02.000Z,-0.82
2023-01-27T18:55:05.665Z,-1.06
2023-01-27T19:25:08.850Z,-1.30
2023-01-27T19:55:12.910Z,-1.45
2023-01-27T20:25:17.764Z,-1.69
2023-01-27T20:55:21.894Z,-1.82
2023-01-27T21:25:26.868Z,-1.86
2023-01-27T21:55:31.556Z,-1.87
2023-01-27T22:25:34.516Z,-1.90
2023-01-27T22:55:38.044Z,-2.00
2023-01-27T23:25:41.368Z,-2.08
2023-01-27T23:55:44.357Z,-2.07
